sensor_id;sensor_type;location;lat;lon;timestamp;temperature;humidity
72277;SHT30;61204;49.980;8.358;2024-01-07T00:02:19;4.89;86.83
72277;SHT30;61204;49.980;8.358;2024-01-07T00:04:45;4.75;87.29
72277;SHT30;61204;49.980;8.358;2024-01-07T00:07:10;4.97;87.10
72277;SHT30;61204;49.980;8.358;2024-01-07T00:09:38;4.89;86.88
72277;SHT30;61204;49.980;8.358;2024-01-07T00:12:04;4.96;87.13
72277;SHT30;61204;49.980;8.358;2024-01-07T00:14:32;4.85;86.94
72277;SHT30;61204;49.980;8.358;2024-01-07T00:16:58;4.95;86.97
72277;SHT30;61204;49.980;8.358;2024-01-07T00:19:23;4.80;87.49
72277;SHT30;61204;49.980;8.358;2024-01-07T00:21:49;4.92;87.23
72277;SHT30;61204;49.980;8.358;2024-01-07T00:24:15;4.97;87.10
72277;SHT30;61204;49.980;8.358;2024-01-07T00:26:41;4.92;87.19
72277;SHT30;61204;49.980;8.358;2024-01-07T00:29:07;4.90;87.24
72277;SHT30;61204;49.980;8.358;2024-01-07T00:31:34;4.87;87.60
72277;SHT30;61204;49.980;8.358;2024-01-07T00:34:00;4.95;87.86
72277;SHT30;61204;49.980;8.358;2024-01-07T00:36:26;4.97;87.51
72277;SHT30;61204;49.980;8.358;2024-01-07T00:38:53;4.95;87.49
72277;SHT30;61204;49.980;8.358;2024-01-07T00:41:21;4.96;87.51
72277;SHT30;61204;49.980;8.358;2024-01-07T00:43:47;4.82;87.90
72277;SHT30;61204;49.980;8.358;2024-01-07T00:46:12;4.92;87.73
72277;SHT30;61204;49.980;8.358;2024-01-07T00:48:38;5.01;87.87
72277;SHT30;61204;49.980;8.358;2024-01-07T00:51:06;5.04;87.67
72277;SHT30;61204;49.980;8.358;2024-01-07T00:53:31;5.07;87.72
72277;SHT30;61204;49.980;8.358;2024-01-07T00:55:57;4.95;87.73
72277;SHT30;61204;49.980;8.358;2024-01-07T00:58:24;4.93;88.14
72277;SHT30;61204;49.980;8.358;2024-01-07T01:00:50;4.85;88.19
72277;SHT30;61204;49.980;8.358;2024-01-07T01:03:20;4.80;88.68
72277;SHT30;61204;49.980;8.358;2024-01-07T01:05:46;4.85;88.49
72277;SHT30;61204;49.980;8.358;2024-01-07T01:08:14;4.89;88.29
72277;SHT30;61204;49.980;8.358;2024-01-07T01:10:41;4.87;88.14
72277;SHT30;61204;49.980;8.358;2024-01-07T01:13:10;4.85;88.10
72277;SHT30;61204;49.980;8.358;2024-01-07T01:15:36;4.82;88.31
72277;SHT30;61204;49.980;8.358;2024-01-07T01:18:02;4.90;88.31
72277;SHT30;61204;49.980;8.358;2024-01-07T01:20:28;4.83;88.35
72277;SHT30;61204;49.980;8.358;2024-01-07T01:22:54;4.96;87.95
72277;SHT30;61204;49.980;8.358;2024-01-07T01:25:19;4.87;88.25
72277;SHT30;61204;49.980;8.358;2024-01-07T01:27:45;4.83;88.48
72277;SHT30;61204;49.980;8.358;2024-01-07T01:30:11;4.86;88.31
72277;SHT30;61204;49.980;8.358;2024-01-07T01:32:38;4.73;88.42
72277;SHT30;61204;49.980;8.358;2024-01-07T01:35:05;4.85;88.16
72277;SHT30;61204;49.980;8.358;2024-01-07T01:37:31;4.80;88.02
72277;SHT30;61204;49.980;8.358;2024-01-07T01:40:00;4.83;88.18
72277;SHT30;61204;49.980;8.358;2024-01-07T01:42:25;4.76;88.10
72277;SHT30;61204;49.980;8.358;2024-01-07T01:44:51;4.82;88.13
72277;SHT30;61204;49.980;8.358;2024-01-07T01:47:20;4.80;87.79
72277;SHT30;61204;49.980;8.358;2024-01-07T01:49:46;4.76;88.02
72277;SHT30;61204;49.980;8.358;2024-01-07T01:52:13;4.73;88.05
72277;SHT30;61204;49.980;8.358;2024-01-07T01:54:40;4.71;87.93
72277;SHT30;61204;49.980;8.358;2024-01-07T01:57:09;4.69;87.96
72277;SHT30;61204;49.980;8.358;2024-01-07T01:59:42;4.69;88.18
72277;SHT30;61204;49.980;8.358;2024-01-07T02:02:11;4.65;88.22
72277;SHT30;61204;49.980;8.358;2024-01-07T02:04:39;4.71;88.41
72277;SHT30;61204;49.980;8.358;2024-01-07T02:07:05;4.64;88.11
72277;SHT30;61204;49.980;8.358;2024-01-07T02:09:31;4.68;88.31
72277;SHT30;61204;49.980;8.358;2024-01-07T02:12:04;4.62;88.28
72277;SHT30;61204;49.980;8.358;2024-01-07T02:14:30;4.73;88.15
72277;SHT30;61204;49.980;8.358;2024-01-07T02:16:56;4.55;88.66
72277;SHT30;61204;49.980;8.358;2024-01-07T02:19:22;4.59;88.70
72277;SHT30;61204;49.980;8.358;2024-01-07T02:21:50;4.57;88.34
72277;SHT30;61204;49.980;8.358;2024-01-07T02:24:17;4.61;88.43
72277;SHT30;61204;49.980;8.358;2024-01-07T02:26:44;4.62;88.22
72277;SHT30;61204;49.980;8.358;2024-01-07T02:29:12;4.71;88.34
72277;SHT30;61204;49.980;8.358;2024-01-07T02:31:37;4.71;88.16
72277;SHT30;61204;49.980;8.358;2024-01-07T02:34:03;4.75;87.84
72277;SHT30;61204;49.980;8.358;2024-01-07T02:36:31;4.71;88.01
72277;SHT30;61204;49.980;8.358;2024-01-07T02:38:56;4.61;88.27
72277;SHT30;61204;49.980;8.358;2024-01-07T02:41:22;4.73;88.04
72277;SHT30;61204;49.980;8.358;2024-01-07T02:43:51;4.64;87.80
72277;SHT30;61204;49.980;8.358;2024-01-07T02:46:16;4.73;87.55
72277;SHT30;61204;49.980;8.358;2024-01-07T02:48:42;4.67;87.32
72277;SHT30;61204;49.980;8.358;2024-01-07T02:51:10;4.61;87.80
72277;SHT30;61204;49.980;8.358;2024-01-07T02:53:36;4.57;87.89
72277;SHT30;61204;49.980;8.358;2024-01-07T02:56:02;4.58;87.82
72277;SHT30;61204;49.980;8.358;2024-01-07T02:58:28;4.58;87.86
72277;SHT30;61204;49.980;8.358;2024-01-07T03:00:55;4.64;87.63
72277;SHT30;61204;49.980;8.358;2024-01-07T03:03:24;4.69;87.43
72277;SHT30;61204;49.980;8.358;2024-01-07T03:05:49;4.61;87.73
72277;SHT30;61204;49.980;8.358;2024-01-07T03:08:15;4.71;87.57
72277;SHT30;61204;49.980;8.358;2024-01-07T03:10:40;4.67;87.59
72277;SHT30;61204;49.980;8.358;2024-01-07T03:13:06;4.65;87.60
72277;SHT30;61204;49.980;8.358;2024-01-07T03:15:32;4.61;87.63
72277;SHT30;61204;49.980;8.358;2024-01-07T03:17:57;4.59;87.72
72277;SHT30;61204;49.980;8.358;2024-01-07T03:20:23;4.57;87.60
72277;SHT30;61204;49.980;8.358;2024-01-07T03:22:48;4.67;87.32
72277;SHT30;61204;49.980;8.358;2024-01-07T03:25:14;4.69;87.28
72277;SHT30;61204;49.980;8.358;2024-01-07T03:27:40;4.67;87.41
72277;SHT30;61204;49.980;8.358;2024-01-07T03:30:06;4.76;87.51
72277;SHT30;61204;49.980;8.358;2024-01-07T03:32:31;4.68;87.23
72277;SHT30;61204;49.980;8.358;2024-01-07T03:34:57;4.76;87.09
72277;SHT30;61204;49.980;8.358;2024-01-07T03:37:23;4.67;87.57
72277;SHT30;61204;49.980;8.358;2024-01-07T03:39:50;4.64;87.79
72277;SHT30;61204;49.980;8.358;2024-01-07T03:42:16;4.61;87.88
72277;SHT30;61204;49.980;8.358;2024-01-07T03:44:42;4.58;87.92
72277;SHT30;61204;49.980;8.358;2024-01-07T03:47:08;4.61;88.12
72277;SHT30;61204;49.980;8.358;2024-01-07T03:49:36;4.62;87.79
72277;SHT30;61204;49.980;8.358;2024-01-07T03:52:04;4.54;88.08
72277;SHT30;61204;49.980;8.358;2024-01-07T03:54:34;4.54;88.31
72277;SHT30;61204;49.980;8.358;2024-01-07T03:56:59;4.59;88.38
72277;SHT30;61204;49.980;8.358;2024-01-07T03:59:27;4.50;88.59
72277;SHT30;61204;49.980;8.358;2024-01-07T04:01:56;4.52;88.58
72277;SHT30;61204;49.980;8.358;2024-01-07T04:04:23;4.67;88.01
72277;SHT30;61204;49.980;8.358;2024-01-07T04:06:48;4.55;88.30
72277;SHT30;61204;49.980;8.358;2024-01-07T04:09:16;4.51;88.34
72277;SHT30;61204;49.980;8.358;2024-01-07T04:11:42;4.44;88.80
72277;SHT30;61204;49.980;8.358;2024-01-07T04:14:08;4.54;88.52
72277;SHT30;61204;49.980;8.358;2024-01-07T04:16:35;4.54;88.28
72277;SHT30;61204;49.980;8.358;2024-01-07T04:19:00;4.52;88.49
72277;SHT30;61204;49.980;8.358;2024-01-07T04:21:26;4.54;88.42
72277;SHT30;61204;49.980;8.358;2024-01-07T04:23:54;4.59;88.31
72277;SHT30;61204;49.980;8.358;2024-01-07T04:26:20;4.55;88.44
72277;SHT30;61204;49.980;8.358;2024-01-07T04:28:45;4.50;88.56
72277;SHT30;61204;49.980;8.358;2024-01-07T04:31:11;4.59;88.41
72277;SHT30;61204;49.980;8.358;2024-01-07T04:33:37;4.57;88.22
72277;SHT30;61204;49.980;8.358;2024-01-07T04:36:05;4.55;88.33
72277;SHT30;61204;49.980;8.358;2024-01-07T04:38:31;4.67;88.08
72277;SHT30;61204;49.980;8.358;2024-01-07T04:40:56;4.55;88.91
72277;SHT30;61204;49.980;8.358;2024-01-07T04:43:22;4.41;89.59
72277;SHT30;61204;49.980;8.358;2024-01-07T04:45:47;4.47;89.77
72277;SHT30;61204;49.980;8.358;2024-01-07T04:48:18;4.41;90.21
72277;SHT30;61204;49.980;8.358;2024-01-07T04:50:44;4.42;90.36
72277;SHT30;61204;49.980;8.358;2024-01-07T04:53:10;4.36;90.64
72277;SHT30;61204;49.980;8.358;2024-01-07T04:55:36;4.29;91.24
72277;SHT30;61204;49.980;8.358;2024-01-07T04:58:02;4.31;91.23
72277;SHT30;61204;49.980;8.358;2024-01-07T05:00:30;4.34;91.12
72277;SHT30;61204;49.980;8.358;2024-01-07T05:02:55;4.25;91.67
72277;SHT30;61204;49.980;8.358;2024-01-07T05:05:23;4.21;92.15
72277;SHT30;61204;49.980;8.358;2024-01-07T05:07:51;4.17;92.75
72277;SHT30;61204;49.980;8.358;2024-01-07T05:10:17;4.16;93.02
72277;SHT30;61204;49.980;8.358;2024-01-07T05:12:42;4.11;93.61
72277;SHT30;61204;49.980;8.358;2024-01-07T05:15:08;4.04;93.92
72277;SHT30;61204;49.980;8.358;2024-01-07T05:17:35;4.00;94.53
72277;SHT30;61204;49.980;8.358;2024-01-07T05:20:00;4.00;94.26
72277;SHT30;61204;49.980;8.358;2024-01-07T05:22:26;4.04;94.13
72277;SHT30;61204;49.980;8.358;2024-01-07T05:24:51;4.07;93.77
72277;SHT30;61204;49.980;8.358;2024-01-07T05:27:17;3.97;94.56
72277;SHT30;61204;49.980;8.358;2024-01-07T05:29:45;4.07;93.92
72277;SHT30;61204;49.980;8.358;2024-01-07T05:32:12;4.02;94.43
72277;SHT30;61204;49.980;8.358;2024-01-07T05:34:38;3.99;94.38
72277;SHT30;61204;49.980;8.358;2024-01-07T05:37:06;3.97;94.33
72277;SHT30;61204;49.980;8.358;2024-01-07T05:39:31;4.00;94.08
72277;SHT30;61204;49.980;8.358;2024-01-07T05:41:57;4.00;94.23
72277;SHT30;61204;49.980;8.358;2024-01-07T05:44:22;3.99;94.16
72277;SHT30;61204;49.980;8.358;2024-01-07T05:46:48;3.97;94.11
72277;SHT30;61204;49.980;8.358;2024-01-07T05:49:13;4.07;93.89
72277;SHT30;61204;49.980;8.358;2024-01-07T05:51:40;3.99;94.63
72277;SHT30;61204;49.980;8.358;2024-01-07T05:54:06;4.06;94.22
72277;SHT30;61204;49.980;8.358;2024-01-07T05:56:32;3.97;94.65
72277;SHT30;61204;49.980;8.358;2024-01-07T05:58:58;3.99;94.67
72277;SHT30;61204;49.980;8.358;2024-01-07T06:01:23;4.03;94.40
72277;SHT30;61204;49.980;8.358;2024-01-07T06:03:49;4.04;94.57
72277;SHT30;61204;49.980;8.358;2024-01-07T06:06:15;4.03;94.76
72277;SHT30;61204;49.980;8.358;2024-01-07T06:08:47;4.03;94.91
72277;SHT30;61204;49.980;8.358;2024-01-07T06:11:12;4.09;94.31
72277;SHT30;61204;49.980;8.358;2024-01-07T06:13:44;4.09;94.42
72277;SHT30;61204;49.980;8.358;2024-01-07T06:16:10;4.09;92.88
72277;SHT30;61204;49.980;8.358;2024-01-07T06:18:35;4.16;92.84
72277;SHT30;61204;49.980;8.358;2024-01-07T06:21:01;4.25;91.95
72277;SHT30;61204;49.980;8.358;2024-01-07T06:23:27;4.27;91.62
72277;SHT30;61204;49.980;8.358;2024-01-07T06:25:53;4.24;91.94
72277;SHT30;61204;49.980;8.358;2024-01-07T06:28:18;4.34;91.23
72277;SHT30;61204;49.980;8.358;2024-01-07T06:30:44;4.31;91.22
72277;SHT30;61204;49.980;8.358;2024-01-07T06:33:10;4.41;90.88
72277;SHT30;61204;49.980;8.358;2024-01-07T06:35:35;4.34;90.97
72277;SHT30;61204;49.980;8.358;2024-01-07T06:38:01;4.30;91.35
72277;SHT30;61204;49.980;8.358;2024-01-07T06:40:26;4.29;91.42
72277;SHT30;61204;49.980;8.358;2024-01-07T06:42:52;4.29;90.41
72277;SHT30;61204;49.980;8.358;2024-01-07T06:45:17;4.33;89.91
72277;SHT30;61204;49.980;8.358;2024-01-07T06:47:43;4.20;89.22
72277;SHT30;61204;49.980;8.358;2024-01-07T06:50:10;4.13;89.14
72277;SHT30;61204;49.980;8.358;2024-01-07T06:52:36;4.13;89.53
72277;SHT30;61204;49.980;8.358;2024-01-07T06:55:04;4.10;89.90
72277;SHT30;61204;49.980;8.358;2024-01-07T06:57:30;4.07;89.37
72277;SHT30;61204;49.980;8.358;2024-01-07T06:59:55;4.06;89.98
72277;SHT30;61204;49.980;8.358;2024-01-07T07:02:21;4.06;89.67
72277;SHT30;61204;49.980;8.358;2024-01-07T07:04:49;4.06;89.93
72277;SHT30;61204;49.980;8.358;2024-01-07T07:07:17;4.04;89.58
72277;SHT30;61204;49.980;8.358;2024-01-07T07:09:42;4.04;89.25
72277;SHT30;61204;49.980;8.358;2024-01-07T07:12:08;4.13;88.88
72277;SHT30;61204;49.980;8.358;2024-01-07T07:14:34;4.03;87.60
72277;SHT30;61204;49.980;8.358;2024-01-07T07:17:00;3.99;86.55
72277;SHT30;61204;49.980;8.358;2024-01-07T07:19:25;3.97;87.17
72277;SHT30;61204;49.980;8.358;2024-01-07T07:21:51;3.92;87.24
72277;SHT30;61204;49.980;8.358;2024-01-07T07:24:16;3.95;87.29
72277;SHT30;61204;49.980;8.358;2024-01-07T07:26:42;3.87;87.58
72277;SHT30;61204;49.980;8.358;2024-01-07T07:29:08;3.95;87.33
72277;SHT30;61204;49.980;8.358;2024-01-07T07:31:37;3.81;87.23
72277;SHT30;61204;49.980;8.358;2024-01-07T07:34:04;3.76;87.42
72277;SHT30;61204;49.980;8.358;2024-01-07T07:36:30;3.69;86.88
72277;SHT30;61204;49.980;8.358;2024-01-07T07:38:55;3.72;86.80
72277;SHT30;61204;49.980;8.358;2024-01-07T07:41:21;3.68;87.23
72277;SHT30;61204;49.980;8.358;2024-01-07T07:43:47;3.69;87.37
72277;SHT30;61204;49.980;8.358;2024-01-07T07:46:12;3.68;87.12
72277;SHT30;61204;49.980;8.358;2024-01-07T07:48:38;3.65;87.17
72277;SHT30;61204;49.980;8.358;2024-01-07T07:51:07;3.67;87.26
72277;SHT30;61204;49.980;8.358;2024-01-07T07:53:33;3.67;87.55
72277;SHT30;61204;49.980;8.358;2024-01-07T07:55:58;3.68;87.30
72277;SHT30;61204;49.980;8.358;2024-01-07T07:58:24;3.64;87.50
72277;SHT30;61204;49.980;8.358;2024-01-07T08:00:49;3.57;87.69
72277;SHT30;61204;49.980;8.358;2024-01-07T08:03:18;3.58;87.61
72277;SHT30;61204;49.980;8.358;2024-01-07T08:05:46;3.55;87.78
72277;SHT30;61204;49.980;8.358;2024-01-07T08:08:14;3.57;87.63
72277;SHT30;61204;49.980;8.358;2024-01-07T08:10:42;3.62;87.64
72277;SHT30;61204;49.980;8.358;2024-01-07T08:13:08;3.58;87.71
72277;SHT30;61204;49.980;8.358;2024-01-07T08:15:35;3.62;87.04
72277;SHT30;61204;49.980;8.358;2024-01-07T08:18:04;3.62;87.17
72277;SHT30;61204;49.980;8.358;2024-01-07T08:20:30;3.67;86.96
72277;SHT30;61204;49.980;8.358;2024-01-07T08:22:56;3.68;86.61
72277;SHT30;61204;49.980;8.358;2024-01-07T08:25:21;3.62;86.53
72277;SHT30;61204;49.980;8.358;2024-01-07T08:27:51;3.64;86.14
72277;SHT30;61204;49.980;8.358;2024-01-07T08:30:16;3.67;86.53
72277;SHT30;61204;49.980;8.358;2024-01-07T08:32:42;3.62;86.19
72277;SHT30;61204;49.980;8.358;2024-01-07T08:35:10;3.64;85.97
72277;SHT30;61204;49.980;8.358;2024-01-07T08:37:39;3.61;85.80
72277;SHT30;61204;49.980;8.358;2024-01-07T08:40:07;3.57;85.61
72277;SHT30;61204;49.980;8.358;2024-01-07T08:42:35;3.61;85.73
72277;SHT30;61204;49.980;8.358;2024-01-07T08:45:01;3.65;85.70
72277;SHT30;61204;49.980;8.358;2024-01-07T08:47:29;3.64;85.51
72277;SHT30;61204;49.980;8.358;2024-01-07T08:49:58;3.58;85.75
72277;SHT30;61204;49.980;8.358;2024-01-07T08:52:24;3.61;86.03
72277;SHT30;61204;49.980;8.358;2024-01-07T08:54:50;3.64;85.60
72277;SHT30;61204;49.980;8.358;2024-01-07T08:57:15;3.65;85.86
72277;SHT30;61204;49.980;8.358;2024-01-07T08:59:43;3.64;85.72
72277;SHT30;61204;49.980;8.358;2024-01-07T09:02:11;3.62;85.31
72277;SHT30;61204;49.980;8.358;2024-01-07T09:04:37;3.64;85.56
72277;SHT30;61204;49.980;8.358;2024-01-07T09:07:03;3.61;85.73
72277;SHT30;61204;49.980;8.358;2024-01-07T09:09:31;3.74;85.65
72277;SHT30;61204;49.980;8.358;2024-01-07T09:11:57;3.65;84.68
72277;SHT30;61204;49.980;8.358;2024-01-07T09:14:24;3.61;84.51
72277;SHT30;61204;49.980;8.358;2024-01-07T09:16:50;3.62;84.77
72277;SHT30;61204;49.980;8.358;2024-01-07T09:19:16;3.69;84.17
72277;SHT30;61204;49.980;8.358;2024-01-07T09:21:43;3.62;84.20
72277;SHT30;61204;49.980;8.358;2024-01-07T09:24:09;3.68;83.34
72277;SHT30;61204;49.980;8.358;2024-01-07T09:26:37;3.61;83.37
72277;SHT30;61204;49.980;8.358;2024-01-07T09:29:05;3.64;83.02
72277;SHT30;61204;49.980;8.358;2024-01-07T09:31:30;3.65;82.92
72277;SHT30;61204;49.980;8.358;2024-01-07T09:33:56;3.51;82.91
72277;SHT30;61204;49.980;8.358;2024-01-07T09:36:24;3.58;82.97
72277;SHT30;61204;49.980;8.358;2024-01-07T09:38:50;3.59;82.36
72277;SHT30;61204;49.980;8.358;2024-01-07T09:41:15;3.55;82.88
72277;SHT30;61204;49.980;8.358;2024-01-07T09:43:41;3.48;82.96
72277;SHT30;61204;49.980;8.358;2024-01-07T09:46:07;3.67;82.57
72277;SHT30;61204;49.980;8.358;2024-01-07T09:48:32;3.58;82.13
72277;SHT30;61204;49.980;8.358;2024-01-07T09:51:02;3.58;82.16
72277;SHT30;61204;49.980;8.358;2024-01-07T09:53:34;3.65;82.11
72277;SHT30;61204;49.980;8.358;2024-01-07T09:56:23;3.61;81.70
72277;SHT30;61204;49.980;8.358;2024-01-07T09:58:51;3.62;81.80
72277;SHT30;61204;49.980;8.358;2024-01-07T10:01:20;3.51;81.78
72277;SHT30;61204;49.980;8.358;2024-01-07T10:03:46;3.57;82.04
72277;SHT30;61204;49.980;8.358;2024-01-07T10:06:12;3.55;81.81
72277;SHT30;61204;49.980;8.358;2024-01-07T10:08:38;3.61;81.47
72277;SHT30;61204;49.980;8.358;2024-01-07T10:11:04;3.62;81.97
72277;SHT30;61204;49.980;8.358;2024-01-07T10:13:31;3.64;81.96
72277;SHT30;61204;49.980;8.358;2024-01-07T10:15:57;3.68;81.06
72277;SHT30;61204;49.980;8.358;2024-01-07T10:18:23;3.55;80.88
72277;SHT30;61204;49.980;8.358;2024-01-07T10:20:50;3.47;80.58
72277;SHT30;61204;49.980;8.358;2024-01-07T10:23:20;3.35;80.07
72277;SHT30;61204;49.980;8.358;2024-01-07T10:25:46;3.34;80.36
72277;SHT30;61204;49.980;8.358;2024-01-07T10:28:12;3.28;80.34
72277;SHT30;61204;49.980;8.358;2024-01-07T10:30:39;3.26;80.39
72277;SHT30;61204;49.980;8.358;2024-01-07T10:33:08;3.27;80.52
72277;SHT30;61204;49.980;8.358;2024-01-07T10:35:37;3.44;80.75
72277;SHT30;61204;49.980;8.358;2024-01-07T10:38:07;3.33;80.92
72277;SHT30;61204;49.980;8.358;2024-01-07T10:40:32;3.45;80.68
72277;SHT30;61204;49.980;8.358;2024-01-07T10:42:59;3.35;80.94
72277;SHT30;61204;49.980;8.358;2024-01-07T10:45:25;3.50;81.30
72277;SHT30;61204;49.980;8.358;2024-01-07T10:47:59;3.54;80.58
72277;SHT30;61204;49.980;8.358;2024-01-07T10:50:32;3.42;80.31
72277;SHT30;61204;49.980;8.358;2024-01-07T10:53:03;3.27;80.72
72277;SHT30;61204;49.980;8.358;2024-01-07T10:55:34;3.26;80.77
72277;SHT30;61204;49.980;8.358;2024-01-07T10:58:04;3.37;80.60
72277;SHT30;61204;49.980;8.358;2024-01-07T11:00:31;3.40;80.08
72277;SHT30;61204;49.980;8.358;2024-01-07T11:04:12;3.45;79.82
72277;SHT30;61204;49.980;8.358;2024-01-07T11:07:15;3.38;79.05
72277;SHT30;61204;49.980;8.358;2024-01-07T11:12:37;3.27;79.99
72277;SHT30;61204;49.980;8.358;2024-01-07T11:15:06;3.33;80.68
72277;SHT30;61204;49.980;8.358;2024-01-07T11:20:02;3.17;79.70
72277;SHT30;61204;49.980;8.358;2024-01-07T11:22:29;3.20;80.13
72277;SHT30;61204;49.980;8.358;2024-01-07T11:25:01;3.14;80.06
72277;SHT30;61204;49.980;8.358;2024-01-07T11:27:31;3.10;79.98
72277;SHT30;61204;49.980;8.358;2024-01-07T11:30:18;3.10;80.13
72277;SHT30;61204;49.980;8.358;2024-01-07T11:32:45;3.17;79.38
72277;SHT30;61204;49.980;8.358;2024-01-07T11:35:14;3.22;79.23
72277;SHT30;61204;49.980;8.358;2024-01-07T11:37:41;3.13;78.91
72277;SHT30;61204;49.980;8.358;2024-01-07T11:40:08;3.14;78.94
72277;SHT30;61204;49.980;8.358;2024-01-07T11:42:34;3.26;79.14
72277;SHT30;61204;49.980;8.358;2024-01-07T11:45:00;3.30;79.25
72277;SHT30;61204;49.980;8.358;2024-01-07T11:47:25;3.42;78.62
72277;SHT30;61204;49.980;8.358;2024-01-07T11:49:53;3.35;78.16
72277;SHT30;61204;49.980;8.358;2024-01-07T11:52:20;3.17;78.17
72277;SHT30;61204;49.980;8.358;2024-01-07T11:54:47;3.09;78.58
72277;SHT30;61204;49.980;8.358;2024-01-07T11:57:14;3.13;79.15
72277;SHT30;61204;49.980;8.358;2024-01-07T11:59:39;3.27;78.53
72277;SHT30;61204;49.980;8.358;2024-01-07T12:02:07;3.07;78.65
72277;SHT30;61204;49.980;8.358;2024-01-07T12:04:34;3.05;78.18
72277;SHT30;61204;49.980;8.358;2024-01-07T12:07:00;3.17;78.03
72277;SHT30;61204;49.980;8.358;2024-01-07T12:09:31;3.20;78.00
72277;SHT30;61204;49.980;8.358;2024-01-07T12:11:56;3.14;78.18
72277;SHT30;61204;49.980;8.358;2024-01-07T12:14:26;3.13;77.97
72277;SHT30;61204;49.980;8.358;2024-01-07T12:16:52;3.03;78.08
72277;SHT30;61204;49.980;8.358;2024-01-07T12:19:17;3.07;78.35
72277;SHT30;61204;49.980;8.358;2024-01-07T12:21:47;3.23;78.38
72277;SHT30;61204;49.980;8.358;2024-01-07T12:24:18;3.17;78.29
72277;SHT30;61204;49.980;8.358;2024-01-07T12:26:50;3.16;77.91
72277;SHT30;61204;49.980;8.358;2024-01-07T12:29:18;3.09;78.56
72277;SHT30;61204;49.980;8.358;2024-01-07T12:31:43;3.10;78.48
72277;SHT30;61204;49.980;8.358;2024-01-07T12:34:12;3.03;78.45
72277;SHT30;61204;49.980;8.358;2024-01-07T12:36:41;3.03;78.07
72277;SHT30;61204;49.980;8.358;2024-01-07T12:39:06;3.07;78.19
72277;SHT30;61204;49.980;8.358;2024-01-07T12:41:34;3.07;77.99
72277;SHT30;61204;49.980;8.358;2024-01-07T12:44:07;3.20;77.45
72277;SHT30;61204;49.980;8.358;2024-01-07T12:46:34;3.16;77.27
72277;SHT30;61204;49.980;8.358;2024-01-07T12:49:02;3.10;77.14
72277;SHT30;61204;49.980;8.358;2024-01-07T12:51:28;3.10;77.23
72277;SHT30;61204;49.980;8.358;2024-01-07T12:53:54;3.17;76.57
72277;SHT30;61204;49.980;8.358;2024-01-07T12:56:24;3.09;77.21
72277;SHT30;61204;49.980;8.358;2024-01-07T12:58:50;2.92;77.35
72277;SHT30;61204;49.980;8.358;2024-01-07T13:01:19;2.96;77.53
72277;SHT30;61204;49.980;8.358;2024-01-07T13:03:47;2.81;78.19
72277;SHT30;61204;49.980;8.358;2024-01-07T13:06:15;2.84;78.27
72277;SHT30;61204;49.980;8.358;2024-01-07T13:08:40;2.71;77.75
72277;SHT30;61204;49.980;8.358;2024-01-07T13:11:12;2.65;77.63
72277;SHT30;61204;49.980;8.358;2024-01-07T13:13:41;2.52;78.09
72277;SHT30;61204;49.980;8.358;2024-01-07T13:16:07;2.55;77.94
72277;SHT30;61204;49.980;8.358;2024-01-07T13:18:32;2.42;77.70
72277;SHT30;61204;49.980;8.358;2024-01-07T13:21:04;2.37;78.03
72277;SHT30;61204;49.980;8.358;2024-01-07T13:23:32;2.36;78.21
72277;SHT30;61204;49.980;8.358;2024-01-07T13:26:01;2.34;78.07
72277;SHT30;61204;49.980;8.358;2024-01-07T13:28:37;2.34;77.79
72277;SHT30;61204;49.980;8.358;2024-01-07T13:31:05;2.42;77.47
72277;SHT30;61204;49.980;8.358;2024-01-07T13:33:33;2.33;78.09
72277;SHT30;61204;49.980;8.358;2024-01-07T13:36:02;2.37;77.38
72277;SHT30;61204;49.980;8.358;2024-01-07T13:38:28;2.29;77.47
72277;SHT30;61204;49.980;8.358;2024-01-07T13:40:57;2.36;77.56
72277;SHT30;61204;49.980;8.358;2024-01-07T13:43:25;2.40;77.19
72277;SHT30;61204;49.980;8.358;2024-01-07T13:45:55;2.36;77.48
72277;SHT30;61204;49.980;8.358;2024-01-07T13:48:20;2.23;77.06
72277;SHT30;61204;49.980;8.358;2024-01-07T13:50:46;2.17;77.05
72277;SHT30;61204;49.980;8.358;2024-01-07T13:53:17;2.19;77.49
72277;SHT30;61204;49.980;8.358;2024-01-07T13:55:45;2.14;77.37
72277;SHT30;61204;49.980;8.358;2024-01-07T13:58:14;2.16;77.25
72277;SHT30;61204;49.980;8.358;2024-01-07T14:00:40;2.19;77.45
72277;SHT30;61204;49.980;8.358;2024-01-07T14:03:07;2.23;77.43
72277;SHT30;61204;49.980;8.358;2024-01-07T14:05:32;2.34;77.48
72277;SHT30;61204;49.980;8.358;2024-01-07T14:08:01;2.31;76.55
72277;SHT30;61204;49.980;8.358;2024-01-07T14:10:29;2.16;76.69
72277;SHT30;61204;49.980;8.358;2024-01-07T14:12:55;2.03;76.41
72277;SHT30;61204;49.980;8.358;2024-01-07T14:15:26;1.98;76.47
72277;SHT30;61204;49.980;8.358;2024-01-07T14:17:55;1.96;76.67
72277;SHT30;61204;49.980;8.358;2024-01-07T14:20:23;1.95;76.67
72277;SHT30;61204;49.980;8.358;2024-01-07T14:22:51;1.91;76.46
72277;SHT30;61204;49.980;8.358;2024-01-07T14:25:17;1.85;77.14
72277;SHT30;61204;49.980;8.358;2024-01-07T14:27:43;1.81;77.15
72277;SHT30;61204;49.980;8.358;2024-01-07T14:30:11;1.68;76.77
72277;SHT30;61204;49.980;8.358;2024-01-07T14:32:39;1.67;76.62
72277;SHT30;61204;49.980;8.358;2024-01-07T14:35:05;1.68;76.22
72277;SHT30;61204;49.980;8.358;2024-01-07T14:37:31;1.57;76.31
72277;SHT30;61204;49.980;8.358;2024-01-07T14:39:59;1.57;76.48
72277;SHT30;61204;49.980;8.358;2024-01-07T14:42:25;1.54;76.76
72277;SHT30;61204;49.980;8.358;2024-01-07T14:44:50;1.46;76.68
72277;SHT30;61204;49.980;8.358;2024-01-07T14:47:17;1.43;77.16
72277;SHT30;61204;49.980;8.358;2024-01-07T14:49:43;1.43;77.25
72277;SHT30;61204;49.980;8.358;2024-01-07T14:52:08;1.43;77.63
72277;SHT30;61204;49.980;8.358;2024-01-07T14:54:34;1.40;77.39
72277;SHT30;61204;49.980;8.358;2024-01-07T14:57:00;1.39;77.53
72277;SHT30;61204;49.980;8.358;2024-01-07T14:59:26;1.40;77.10
72277;SHT30;61204;49.980;8.358;2024-01-07T15:01:52;1.41;77.20
72277;SHT30;61204;49.980;8.358;2024-01-07T15:04:21;1.30;77.77
72277;SHT30;61204;49.980;8.358;2024-01-07T15:06:46;1.26;77.42
72277;SHT30;61204;49.980;8.358;2024-01-07T15:09:14;1.16;77.02
72277;SHT30;61204;49.980;8.358;2024-01-07T15:11:41;1.13;76.87
72277;SHT30;61204;49.980;8.358;2024-01-07T15:14:09;1.13;76.31
72277;SHT30;61204;49.980;8.358;2024-01-07T15:16:37;1.06;76.61
72277;SHT30;61204;49.980;8.358;2024-01-07T15:19:02;0.99;76.24
72277;SHT30;61204;49.980;8.358;2024-01-07T15:21:29;0.92;76.14
72277;SHT30;61204;49.980;8.358;2024-01-07T15:23:55;0.82;76.40
72277;SHT30;61204;49.980;8.358;2024-01-07T15:26:20;0.79;76.76
72277;SHT30;61204;49.980;8.358;2024-01-07T15:28:46;0.75;76.44
72277;SHT30;61204;49.980;8.358;2024-01-07T15:31:12;0.74;76.61
72277;SHT30;61204;49.980;8.358;2024-01-07T15:33:37;0.74;76.30
72277;SHT30;61204;49.980;8.358;2024-01-07T15:36:04;0.68;76.50
72277;SHT30;61204;49.980;8.358;2024-01-07T15:38:30;0.69;76.80
72277;SHT30;61204;49.980;8.358;2024-01-07T15:40:55;0.64;76.41
72277;SHT30;61204;49.980;8.358;2024-01-07T15:43:21;0.71;76.82
72277;SHT30;61204;49.980;8.358;2024-01-07T15:45:51;0.72;76.49
72277;SHT30;61204;49.980;8.358;2024-01-07T15:48:19;0.69;76.57
72277;SHT30;61204;49.980;8.358;2024-01-07T15:50:45;0.64;75.88